sensor_id;sensor_type;location;lat;lon;timestamp;P1;durP1;ratioP1;P2;durP2;ratioP2
7931;SDS011;4011;49.424;10.894;2023-02-28T00:04:18;3.95;;;2.30;;
7931;SDS011;4011;49.424;10.894;2023-02-28T00:09:39;3.80;;;2.40;;
7931;SDS011;4011;49.424;10.894;2023-02-28T00:15:00;4.15;;;2.40;;
7931;SDS011;4011;49.424;10.894;2023-02-28T00:20:23;3.80;;;2.30;;
7931;SDS011;4011;49.424;10.894;2023-02-28T00:25:44;3.83;;;2.20;;
7931;SDS011;4011;49.424;10.894;2023-02-28T00:31:06;3.65;;;2.17;;
7931;SDS011;4011;49.424;10.894;2023-02-28T00:36:28;3.95;;;2.00;;
7931;SDS011;4011;49.424;10.894;2023-02-28T00:41:50;4.38;;;2.40;;
7931;SDS011;4011;49.424;10.894;2023-02-28T00:47:11;3.33;;;2.10;;
7931;SDS011;4011;49.424;10.894;2023-02-28T00:52:34;3.92;;;2.20;;
7931;SDS011;4011;49.424;10.894;2023-02-28T00:57:55;4.03;;;2.25;;
7931;SDS011;4011;49.424;10.894;2023-02-28T01:03:17;3.35;;;2.03;;
7931;SDS011;4011;49.424;10.894;2023-02-28T01:08:40;3.65;;;2.10;;
7931;SDS011;4011;49.424;10.894;2023-02-28T01:14:01;3.38;;;1.98;;
7931;SDS011;4011;49.424;10.894;2023-02-28T01:19:23;3.45;;;2.03;;
7931;SDS011;4011;49.424;10.894;2023-02-28T01:24:46;3.38;;;2.25;;
7931;SDS011;4011;49.424;10.894;2023-02-28T01:30:08;3.15;;;1.88;;
7931;SDS011;4011;49.424;10.894;2023-02-28T01:35:31;3.00;;;1.90;;
7931;SDS011;4011;49.424;10.894;2023-02-28T01:40:54;3.33;;;1.88;;
7931;SDS011;4011;49.424;10.894;2023-02-28T01:46:16;3.08;;;2.00;;
7931;SDS011;4011;49.424;10.894;2023-02-28T01:51:38;3.47;;;2.00;;
7931;SDS011;4011;49.424;10.894;2023-02-28T01:57:03;3.10;;;1.83;;
7931;SDS011;4011;49.424;10.894;2023-02-28T02:02:25;3.63;;;2.10;;
7931;SDS011;4011;49.424;10.894;2023-02-28T02:07:48;3.63;;;2.13;;
7931;SDS011;4011;49.424;10.894;2023-02-28T02:13:16;3.50;;;2.30;;
7931;SDS011;4011;49.424;10.894;2023-02-28T02:18:41;3.40;;;2.03;;
7931;SDS011;4011;49.424;10.894;2023-02-28T02:30:02;3.55;;;1.98;;
7931;SDS011;4011;49.424;10.894;2023-02-28T02:35:28;3.65;;;2.20;;
7931;SDS011;4011;49.424;10.894;2023-02-28T02:40:53;3.88;;;2.03;;
7931;SDS011;4011;49.424;10.894;2023-02-28T02:46:16;3.35;;;2.10;;
7931;SDS011;4011;49.424;10.894;2023-02-28T02:51:41;3.80;;;2.30;;
7931;SDS011;4011;49.424;10.894;2023-02-28T02:57:04;4.05;;;2.17;;
7931;SDS011;4011;49.424;10.894;2023-02-28T03:02:28;3.55;;;2.22;;
7931;SDS011;4011;49.424;10.894;2023-02-28T03:07:55;3.30;;;2.13;;
7931;SDS011;4011;49.424;10.894;2023-02-28T03:13:25;3.70;;;2.10;;
7931;SDS011;4011;49.424;10.894;2023-02-28T03:18:52;3.58;;;2.00;;
7931;SDS011;4011;49.424;10.894;2023-02-28T03:24:18;3.35;;;2.10;;
7931;SDS011;4011;49.424;10.894;2023-02-28T03:29:40;3.53;;;2.00;;
7931;SDS011;4011;49.424;10.894;2023-02-28T03:35:05;3.55;;;2.00;;
7931;SDS011;4011;49.424;10.894;2023-02-28T03:45:52;3.63;;;2.20;;
7931;SDS011;4011;49.424;10.894;2023-02-28T03:51:16;3.40;;;2.13;;
7931;SDS011;4011;49.424;10.894;2023-02-28T03:56:39;3.63;;;2.10;;
7931;SDS011;4011;49.424;10.894;2023-02-28T04:02:03;3.45;;;1.90;;
7931;SDS011;4011;49.424;10.894;2023-02-28T04:07:29;3.60;;;2.10;;
7931;SDS011;4011;49.424;10.894;2023-02-28T04:12:57;3.85;;;2.25;;
7931;SDS011;4011;49.424;10.894;2023-02-28T04:18:19;3.45;;;2.10;;
7931;SDS011;4011;49.424;10.894;2023-02-28T04:23:41;3.97;;;2.30;;
7931;SDS011;4011;49.424;10.894;2023-02-28T04:29:03;3.40;;;2.08;;
7931;SDS011;4011;49.424;10.894;2023-02-28T04:34:26;3.72;;;2.13;;
7931;SDS011;4011;49.424;10.894;2023-02-28T04:39:47;3.88;;;2.30;;
7931;SDS011;4011;49.424;10.894;2023-02-28T04:45:14;4.07;;;2.40;;
7931;SDS011;4011;49.424;10.894;2023-02-28T04:50:38;3.58;;;2.25;;
7931;SDS011;4011;49.424;10.894;2023-02-28T04:56:00;4.43;;;2.22;;
7931;SDS011;4011;49.424;10.894;2023-02-28T05:01:22;3.83;;;2.20;;
7931;SDS011;4011;49.424;10.894;2023-02-28T05:06:45;4.03;;;2.50;;
7931;SDS011;4011;49.424;10.894;2023-02-28T05:12:06;3.90;;;2.40;;
7931;SDS011;4011;49.424;10.894;2023-02-28T05:17:28;4.45;;;2.80;;
7931;SDS011;4011;49.424;10.894;2023-02-28T05:22:50;4.18;;;2.40;;
7931;SDS011;4011;49.424;10.894;2023-02-28T05:28:12;4.15;;;2.55;;
7931;SDS011;4011;49.424;10.894;2023-02-28T05:33:34;5.78;;;2.50;;
7931;SDS011;4011;49.424;10.894;2023-02-28T05:38:56;5.07;;;2.72;;
7931;SDS011;4011;49.424;10.894;2023-02-28T05:44:18;4.15;;;2.40;;
7931;SDS011;4011;49.424;10.894;2023-02-28T05:49:39;4.22;;;2.80;;
7931;SDS011;4011;49.424;10.894;2023-02-28T05:55:02;4.03;;;2.55;;
7931;SDS011;4011;49.424;10.894;2023-02-28T06:00:24;4.28;;;2.80;;
7931;SDS011;4011;49.424;10.894;2023-02-28T06:05:46;4.35;;;2.63;;
7931;SDS011;4011;49.424;10.894;2023-02-28T06:11:08;5.47;;;3.42;;
7931;SDS011;4011;49.424;10.894;2023-02-28T06:16:30;5.03;;;2.97;;
7931;SDS011;4011;49.424;10.894;2023-02-28T06:21:52;4.28;;;2.85;;
7931;SDS011;4011;49.424;10.894;2023-02-28T06:27:15;4.38;;;2.90;;
7931;SDS011;4011;49.424;10.894;2023-02-28T06:32:37;4.15;;;2.92;;
7931;SDS011;4011;49.424;10.894;2023-02-28T06:37:58;4.80;;;3.17;;
7931;SDS011;4011;49.424;10.894;2023-02-28T06:43:21;4.53;;;2.80;;
7931;SDS011;4011;49.424;10.894;2023-02-28T06:48:42;4.28;;;2.92;;
7931;SDS011;4011;49.424;10.894;2023-02-28T06:54:04;4.95;;;3.28;;
7931;SDS011;4011;49.424;10.894;2023-02-28T06:59:27;4.85;;;3.20;;
7931;SDS011;4011;49.424;10.894;2023-02-28T07:04:48;4.47;;;3.00;;
7931;SDS011;4011;49.424;10.894;2023-02-28T07:10:10;4.75;;;3.10;;
7931;SDS011;4011;49.424;10.894;2023-02-28T07:15:34;4.78;;;2.95;;
7931;SDS011;4011;49.424;10.894;2023-02-28T07:20:55;5.03;;;3.33;;
7931;SDS011;4011;49.424;10.894;2023-02-28T07:26:17;4.68;;;3.50;;
7931;SDS011;4011;49.424;10.894;2023-02-28T07:31:40;5.15;;;3.30;;
7931;SDS011;4011;49.424;10.894;2023-02-28T07:37:01;5.28;;;3.30;;
7931;SDS011;4011;49.424;10.894;2023-02-28T07:42:24;4.85;;;3.17;;
7931;SDS011;4011;49.424;10.894;2023-02-28T07:47:47;6.63;;;3.67;;
7931;SDS011;4011;49.424;10.894;2023-02-28T07:53:08;5.53;;;3.60;;
7931;SDS011;4011;49.424;10.894;2023-02-28T07:58:30;5.30;;;3.53;;
7931;SDS011;4011;49.424;10.894;2023-02-28T08:03:52;6.25;;;3.70;;
7931;SDS011;4011;49.424;10.894;2023-02-28T08:09:14;6.40;;;3.97;;
7931;SDS011;4011;49.424;10.894;2023-02-28T08:14:36;6.47;;;4.00;;
7931;SDS011;4011;49.424;10.894;2023-02-28T08:19:58;5.35;;;3.60;;
7931;SDS011;4011;49.424;10.894;2023-02-28T08:25:20;5.65;;;3.90;;
7931;SDS011;4011;49.424;10.894;2023-02-28T08:30:41;6.18;;;3.97;;
7931;SDS011;4011;49.424;10.894;2023-02-28T08:36:04;6.35;;;4.03;;
7931;SDS011;4011;49.424;10.894;2023-02-28T08:41:26;5.88;;;4.13;;
7931;SDS011;4011;49.424;10.894;2023-02-28T08:46:47;6.97;;;4.00;;
7931;SDS011;4011;49.424;10.894;2023-02-28T08:52:10;6.18;;;4.07;;
7931;SDS011;4011;49.424;10.894;2023-02-28T08:57:31;7.35;;;4.07;;
7931;SDS011;4011;49.424;10.894;2023-02-28T09:02:53;6.82;;;4.03;;
7931;SDS011;4011;49.424;10.894;2023-02-28T09:08:16;6.68;;;4.78;;
7931;SDS011;4011;49.424;10.894;2023-02-28T09:13:37;8.05;;;4.20;;
7931;SDS011;4011;49.424;10.894;2023-02-28T09:18:59;8.13;;;4.93;;
7931;SDS011;4011;49.424;10.894;2023-02-28T09:24:21;6.50;;;4.78;;
7931;SDS011;4011;49.424;10.894;2023-02-28T09:29:43;8.05;;;4.93;;
7931;SDS011;4011;49.424;10.894;2023-02-28T09:35:04;6.25;;;4.38;;
7931;SDS011;4011;49.424;10.894;2023-02-28T09:40:27;6.57;;;4.75;;
7931;SDS011;4011;49.424;10.894;2023-02-28T09:45:50;7.80;;;5.10;;
7931;SDS011;4011;49.424;10.894;2023-02-28T09:51:14;7.82;;;4.97;;
7931;SDS011;4011;49.424;10.894;2023-02-28T09:56:39;9.02;;;4.97;;
7931;SDS011;4011;49.424;10.894;2023-02-28T10:02:04;6.90;;;4.82;;
7931;SDS011;4011;49.424;10.894;2023-02-28T10:12:50;9.43;;;5.50;;
7931;SDS011;4011;49.424;10.894;2023-02-28T10:18:13;7.82;;;4.97;;
7931;SDS011;4011;49.424;10.894;2023-02-28T10:23:36;7.53;;;4.93;;
7931;SDS011;4011;49.424;10.894;2023-02-28T10:28:59;7.38;;;4.80;;
7931;SDS011;4011;49.424;10.894;2023-02-28T10:34:22;8.48;;;5.28;;
7931;SDS011;4011;49.424;10.894;2023-02-28T10:39:48;7.88;;;4.60;;
7931;SDS011;4011;49.424;10.894;2023-02-28T10:45:15;7.00;;;5.00;;
7931;SDS011;4011;49.424;10.894;2023-02-28T10:50:37;7.28;;;4.63;;
7931;SDS011;4011;49.424;10.894;2023-02-28T10:56:12;7.05;;;4.75;;
7931;SDS011;4011;49.424;10.894;2023-02-28T11:01:39;6.55;;;4.68;;
7931;SDS011;4011;49.424;10.894;2023-02-28T11:07:02;7.97;;;4.72;;
7931;SDS011;4011;49.424;10.894;2023-02-28T11:18:06;7.97;;;4.57;;
7931;SDS011;4011;49.424;10.894;2023-02-28T11:23:40;6.95;;;4.63;;
7931;SDS011;4011;49.424;10.894;2023-02-28T11:29:03;8.18;;;5.35;;
7931;SDS011;4011;49.424;10.894;2023-02-28T11:34:31;7.07;;;5.05;;
7931;SDS011;4011;49.424;10.894;2023-02-28T11:39:54;6.95;;;4.47;;
7931;SDS011;4011;49.424;10.894;2023-02-28T11:45:31;6.13;;;4.05;;
7931;SDS011;4011;49.424;10.894;2023-02-28T11:51:03;6.40;;;4.32;;
7931;SDS011;4011;49.424;10.894;2023-02-28T11:56:33;7.28;;;4.50;;
7931;SDS011;4011;49.424;10.894;2023-02-28T12:02:02;6.45;;;4.32;;
7931;SDS011;4011;49.424;10.894;2023-02-28T12:07:31;7.13;;;4.90;;
7931;SDS011;4011;49.424;10.894;2023-02-28T12:13:03;6.32;;;4.20;;
7931;SDS011;4011;49.424;10.894;2023-02-28T12:18:32;7.90;;;4.70;;
7931;SDS011;4011;49.424;10.894;2023-02-28T12:24:03;6.53;;;4.57;;
7931;SDS011;4011;49.424;10.894;2023-02-28T12:29:32;7.10;;;4.40;;
7931;SDS011;4011;49.424;10.894;2023-02-28T12:35:06;7.05;;;4.68;;
7931;SDS011;4011;49.424;10.894;2023-02-28T12:40:43;7.70;;;4.32;;
7931;SDS011;4011;49.424;10.894;2023-02-28T12:46:07;6.65;;;4.15;;
7931;SDS011;4011;49.424;10.894;2023-02-28T12:51:31;6.85;;;4.25;;
7931;SDS011;4011;49.424;10.894;2023-02-28T12:57:00;6.35;;;4.40;;
7931;SDS011;4011;49.424;10.894;2023-02-28T13:02:33;6.88;;;4.30;;
7931;SDS011;4011;49.424;10.894;2023-02-28T13:13:37;7.63;;;4.55;;
7931;SDS011;4011;49.424;10.894;2023-02-28T13:19:08;6.35;;;4.40;;
7931;SDS011;4011;49.424;10.894;2023-02-28T13:24:41;6.55;;;4.40;;
7931;SDS011;4011;49.424;10.894;2023-02-28T13:35:46;5.40;;;3.95;;
7931;SDS011;4011;49.424;10.894;2023-02-28T13:52:30;5.82;;;4.07;;
7931;SDS011;4011;49.424;10.894;2023-02-28T13:57:58;7.45;;;4.88;;
7931;SDS011;4011;49.424;10.894;2023-02-28T14:03:27;6.05;;;4.20;;
7931;SDS011;4011;49.424;10.894;2023-02-28T14:08:58;5.75;;;3.90;;
7931;SDS011;4011;49.424;10.894;2023-02-28T14:20:00;6.45;;;4.63;;
7931;SDS011;4011;49.424;10.894;2023-02-28T14:25:26;5.88;;;4.60;;
7931;SDS011;4011;49.424;10.894;2023-02-28T14:30:53;6.45;;;4.70;;
7931;SDS011;4011;49.424;10.894;2023-02-28T14:36:20;7.70;;;4.90;;
7931;SDS011;4011;49.424;10.894;2023-02-28T14:41:55;6.50;;;4.70;;
7931;SDS011;4011;49.424;10.894;2023-02-28T14:53:35;6.85;;;4.70;;
7931;SDS011;4011;49.424;10.894;2023-02-28T14:59:29;7.05;;;4.60;;
7931;SDS011;4011;49.424;10.894;2023-02-28T15:05:15;7.20;;;4.85;;
7931;SDS011;4011;49.424;10.894;2023-02-28T15:10:54;7.35;;;4.95;;
7931;SDS011;4011;49.424;10.894;2023-02-28T15:16:31;6.05;;;4.88;;
7931;SDS011;4011;49.424;10.894;2023-02-28T15:28:28;6.20;;;4.82;;
7931;SDS011;4011;49.424;10.894;2023-02-28T15:34:12;7.75;;;4.95;;
7931;SDS011;4011;49.424;10.894;2023-02-28T15:40:03;7.03;;;4.53;;
7931;SDS011;4011;49.424;10.894;2023-02-28T15:45:30;7.55;;;4.80;;
7931;SDS011;4011;49.424;10.894;2023-02-28T15:50:57;7.18;;;5.32;;
7931;SDS011;4011;49.424;10.894;2023-02-28T15:56:22;6.90;;;5.05;;
7931;SDS011;4011;49.424;10.894;2023-02-28T16:01:43;6.82;;;5.13;;
7931;SDS011;4011;49.424;10.894;2023-02-28T16:07:12;7.20;;;5.20;;
7931;SDS011;4011;49.424;10.894;2023-02-28T16:12:36;6.57;;;5.28;;
7931;SDS011;4011;49.424;10.894;2023-02-28T16:17:58;7.15;;;5.15;;
7931;SDS011;4011;49.424;10.894;2023-02-28T16:23:20;7.25;;;5.20;;
7931;SDS011;4011;49.424;10.894;2023-02-28T16:28:42;7.68;;;5.50;;
7931;SDS011;4011;49.424;10.894;2023-02-28T16:34:04;6.78;;;4.88;;
7931;SDS011;4011;49.424;10.894;2023-02-28T16:39:27;7.75;;;5.32;;
7931;SDS011;4011;49.424;10.894;2023-02-28T16:44:48;7.43;;;5.43;;
7931;SDS011;4011;49.424;10.894;2023-02-28T16:50:12;7.55;;;5.28;;
7931;SDS011;4011;49.424;10.894;2023-02-28T16:55:35;7.22;;;5.85;;
7931;SDS011;4011;49.424;10.894;2023-02-28T17:00:56;7.40;;;5.63;;
7931;SDS011;4011;49.424;10.894;2023-02-28T17:06:19;8.07;;;5.68;;
7931;SDS011;4011;49.424;10.894;2023-02-28T17:11:43;8.23;;;5.93;;
7931;SDS011;4011;49.424;10.894;2023-02-28T17:17:04;8.65;;;6.22;;
7931;SDS011;4011;49.424;10.894;2023-02-28T17:22:26;8.50;;;6.35;;
7931;SDS011;4011;49.424;10.894;2023-02-28T17:27:49;8.85;;;6.28;;
7931;SDS011;4011;49.424;10.894;2023-02-28T17:33:11;8.20;;;6.70;;
7931;SDS011;4011;49.424;10.894;2023-02-28T17:38:32;9.13;;;6.57;;
7931;SDS011;4011;49.424;10.894;2023-02-28T17:43:55;9.23;;;6.57;;
7931;SDS011;4011;49.424;10.894;2023-02-28T17:49:16;9.82;;;6.63;;
7931;SDS011;4011;49.424;10.894;2023-02-28T17:54:38;8.68;;;6.30;;
7931;SDS011;4011;49.424;10.894;2023-02-28T18:00:01;9.73;;;6.78;;
7931;SDS011;4011;49.424;10.894;2023-02-28T18:05:26;8.75;;;6.50;;
7931;SDS011;4011;49.424;10.894;2023-02-28T18:10:47;8.38;;;6.70;;
7931;SDS011;4011;49.424;10.894;2023-02-28T18:16:10;9.02;;;6.68;;
7931;SDS011;4011;49.424;10.894;2023-02-28T18:21:31;8.13;;;6.53;;
7931;SDS011;4011;49.424;10.894;2023-02-28T18:26:52;8.45;;;6.40;;
7931;SDS011;4011;49.424;10.894;2023-02-28T18:32:15;8.45;;;6.90;;
7931;SDS011;4011;49.424;10.894;2023-02-28T18:37:36;10.32;;;7.32;;
7931;SDS011;4011;49.424;10.894;2023-02-28T18:42:58;8.80;;;7.15;;
7931;SDS011;4011;49.424;10.894;2023-02-28T18:48:21;8.88;;;6.50;;
7931;SDS011;4011;49.424;10.894;2023-02-28T18:53:46;9.68;;;6.78;;
7931;SDS011;4011;49.424;10.894;2023-02-28T18:59:07;8.50;;;6.90;;
7931;SDS011;4011;49.424;10.894;2023-02-28T19:04:31;8.57;;;6.90;;
7931;SDS011;4011;49.424;10.894;2023-02-28T19:09:52;9.60;;;6.35;;
7931;SDS011;4011;49.424;10.894;2023-02-28T19:15:14;8.02;;;6.35;;
7931;SDS011;4011;49.424;10.894;2023-02-28T19:20:36;7.82;;;6.47;;
7931;SDS011;4011;49.424;10.894;2023-02-28T19:25:58;7.95;;;6.28;;
7931;SDS011;4011;49.424;10.894;2023-02-28T19:31:20;8.50;;;6.43;;
7931;SDS011;4011;49.424;10.894;2023-02-28T19:36:43;7.45;;;5.72;;
7931;SDS011;4011;49.424;10.894;2023-02-28T19:42:05;7.90;;;5.95;;
7931;SDS011;4011;49.424;10.894;2023-02-28T19:47:28;8.07;;;6.30;;
7931;SDS011;4011;49.424;10.894;2023-02-28T19:52:51;7.72;;;6.07;;
7931;SDS011;4011;49.424;10.894;2023-02-28T19:58:12;8.45;;;6.30;;
7931;SDS011;4011;49.424;10.894;2023-02-28T20:03:34;7.75;;;6.25;;
7931;SDS011;4011;49.424;10.894;2023-02-28T20:08:56;8.10;;;6.10;;
7931;SDS011;4011;49.424;10.894;2023-02-28T20:14:18;8.85;;;6.07;;
7931;SDS011;4011;49.424;10.894;2023-02-28T20:19:39;8.32;;;6.20;;
7931;SDS011;4011;49.424;10.894;2023-02-28T20:25:02;8.18;;;6.32;;
7931;SDS011;4011;49.424;10.894;2023-02-28T20:30:24;8.93;;;6.53;;
7931;SDS011;4011;49.424;10.894;2023-02-28T20:35:45;9.75;;;7.10;;
7931;SDS011;4011;49.424;10.894;2023-02-28T20:41:09;7.68;;;6.32;;
7931;SDS011;4011;49.424;10.894;2023-02-28T20:46:30;8.63;;;6.80;;
7931;SDS011;4011;49.424;10.894;2023-02-28T20:51:53;8.75;;;6.38;;
7931;SDS011;4011;49.424;10.894;2023-02-28T20:57:16;9.95;;;7.10;;
7931;SDS011;4011;49.424;10.894;2023-02-28T21:02:37;8.68;;;6.65;;
7931;SDS011;4011;49.424;10.894;2023-02-28T21:07:59;8.63;;;6.85;;
7931;SDS011;4011;49.424;10.894;2023-02-28T21:13:24;9.13;;;6.90;;
7931;SDS011;4011;49.424;10.894;2023-02-28T21:18:46;7.80;;;6.03;;
7931;SDS011;4011;49.424;10.894;2023-02-28T21:24:08;8.02;;;6.60;;
7931;SDS011;4011;49.424;10.894;2023-02-28T21:29:31;9.43;;;7.05;;
7931;SDS011;4011;49.424;10.894;2023-02-28T21:34:53;9.93;;;6.72;;
7931;SDS011;4011;49.424;10.894;2023-02-28T21:40:14;8.85;;;6.65;;
7931;SDS011;4011;49.424;10.894;2023-02-28T21:45:37;8.85;;;6.93;;
7931;SDS011;4011;49.424;10.894;2023-02-28T21:50:59;9.30;;;6.78;;
7931;SDS011;4011;49.424;10.894;2023-02-28T21:56:22;9.38;;;7.20;;
7931;SDS011;4011;49.424;10.894;2023-02-28T22:01:45;9.25;;;6.95;;
7931;SDS011;4011;49.424;10.894;2023-02-28T22:07:07;10.10;;;7.80;;
7931;SDS011;4011;49.424;10.894;2023-02-28T22:12:28;8.73;;;6.95;;
7931;SDS011;4011;49.424;10.894;2023-02-28T22:17:51;9.43;;;7.53;;
7931;SDS011;4011;49.424;10.894;2023-02-28T22:23:12;9.60;;;7.07;;
7931;SDS011;4011;49.424;10.894;2023-02-28T22:28:34;9.57;;;7.63;;
7931;SDS011;4011;49.424;10.894;2023-02-28T22:33:57;9.43;;;6.95;;
7931;SDS011;4011;49.424;10.894;2023-02-28T22:39:19;9.15;;;7.22;;
7931;SDS011;4011;49.424;10.894;2023-02-28T22:44:41;10.95;;;7.70;;
7931;SDS011;4011;49.424;10.894;2023-02-28T22:50:04;9.40;;;7.05;;
7931;SDS011;4011;49.424;10.894;2023-02-28T22:55:25;10.52;;;7.30;;
7931;SDS011;4011;49.424;10.894;2023-02-28T23:00:47;9.60;;;7.60;;
7931;SDS011;4011;49.424;10.894;2023-02-28T23:06:14;10.10;;;7.65;;
7931;SDS011;4011;49.424;10.894;2023-02-28T23:11:37;8.48;;;7.13;;
7931;SDS011;4011;49.424;10.894;2023-02-28T23:16:59;9.43;;;7.15;;
7931;SDS011;4011;49.424;10.894;2023-02-28T23:22:21;9.82;;;6.97;;
7931;SDS011;4011;49.424;10.894;2023-02-28T23:27:43;9.38;;;6.80;;
7931;SDS011;4011;49.424;10.894;2023-02-28T23:33:04;10.88;;;7.65;;
7931;SDS011;4011;49.424;10.894;2023-02-28T23:38:27;8.73;;;6.90;;
7931;SDS011;4011;49.424;10.894;2023-02-28T23:43:50;11.75;;;7.20;;
7931;SDS011;4011;49.424;10.894;2023-02-28T23:49:11;10.18;;;7.40;;
7931;SDS011;4011;49.424;10.894;2023-02-28T23:54:34;9.43;;;6.93;;
7931;SDS011;4011;49.424;10.894;2023-02-28T23:59:55;9.13;;;6.97;;
